sensor_id;sensor_type;location;lat;lon;timestamp;pressure;altitude;pressure_sealevel;temperature;humidity
10464;BME280;5279;42.048;24.638;2022-08-21T00:00:07;96874.59;;;20.99;100.00
10464;BME280;5279;42.048;24.638;2022-08-21T00:02:35;96879.25;;;20.55;100.00
10464;BME280;5279;42.048;24.638;2022-08-21T00:05:03;96868.94;;;20.52;100.00
10464;BME280;5279;42.048;24.638;2022-08-21T00:07:31;96857.00;;;20.48;100.00
10464;BME280;5279;42.048;24.638;2022-08-21T00:09:58;96860.44;;;20.55;100.00
10464;BME280;5279;42.048;24.638;2022-08-21T00:12:25;96860.94;;;20.64;100.00
10464;BME280;5279;42.048;24.638;2022-08-21T00:14:52;96857.22;;;20.65;100.00
10464;BME280;5279;42.048;24.638;2022-08-21T00:17:19;96849.28;;;20.70;100.00
10464;BME280;5279;42.048;24.638;2022-08-21T00:19:48;96862.97;;;20.68;100.00
10464;BME280;5279;42.048;24.638;2022-08-21T00:22:14;96857.44;;;20.63;100.00
10464;BME280;5279;42.048;24.638;2022-08-21T00:24:43;96847.25;;;20.65;100.00
10464;BME280;5279;42.048;24.638;2022-08-21T00:27:09;96842.63;;;20.73;100.00
10464;BME280;5279;42.048;24.638;2022-08-21T00:29:36;96841.44;;;20.68;100.00
10464;BME280;5279;42.048;24.638;2022-08-21T00:32:03;96834.25;;;20.62;100.00
10464;BME280;5279;42.048;24.638;2022-08-21T00:34:30;96824.97;;;20.58;100.00
10464;BME280;5279;42.048;24.638;2022-08-21T00:36:57;96825.16;;;20.63;100.00
10464;BME280;5279;42.048;24.638;2022-08-21T00:39:24;96824.81;;;20.71;100.00
10464;BME280;5279;42.048;24.638;2022-08-21T00:41:52;96815.41;;;20.62;100.00
10464;BME280;5279;42.048;24.638;2022-08-21T00:44:19;96821.25;;;20.59;100.00
10464;BME280;5279;42.048;24.638;2022-08-21T00:46:45;96814.38;;;20.63;100.00
10464;BME280;5279;42.048;24.638;2022-08-21T00:49:13;96811.69;;;20.63;100.00
10464;BME280;5279;42.048;24.638;2022-08-21T00:51:42;96812.31;;;20.77;100.00
10464;BME280;5279;42.048;24.638;2022-08-21T00:54:11;96810.50;;;20.89;100.00
10464;BME280;5279;42.048;24.638;2022-08-21T00:56:39;96807.84;;;21.01;100.00
10464;BME280;5279;42.048;24.638;2022-08-21T00:59:07;96813.13;;;21.07;100.00
10464;BME280;5279;42.048;24.638;2022-08-21T01:01:34;96817.63;;;21.13;100.00
10464;BME280;5279;42.048;24.638;2022-08-21T01:04:01;96812.03;;;21.15;100.00
10464;BME280;5279;42.048;24.638;2022-08-21T01:06:28;96809.03;;;21.05;100.00
10464;BME280;5279;42.048;24.638;2022-08-21T01:08:55;96801.28;;;20.97;100.00
10464;BME280;5279;42.048;24.638;2022-08-21T01:11:22;96801.28;;;20.97;100.00
10464;BME280;5279;42.048;24.638;2022-08-21T01:13:49;96804.72;;;20.86;100.00
10464;BME280;5279;42.048;24.638;2022-08-21T01:16:20;96816.25;;;20.93;100.00
10464;BME280;5279;42.048;24.638;2022-08-21T01:18:49;96819.41;;;20.90;100.00
10464;BME280;5279;42.048;24.638;2022-08-21T01:21:19;96813.88;;;20.85;100.00
10464;BME280;5279;42.048;24.638;2022-08-21T01:23:48;96812.47;;;20.82;100.00
10464;BME280;5279;42.048;24.638;2022-08-21T01:26:17;96827.66;;;20.77;100.00
10464;BME280;5279;42.048;24.638;2022-08-21T01:28:48;96814.06;;;20.71;100.00
10464;BME280;5279;42.048;24.638;2022-08-21T01:31:17;96820.19;;;20.79;100.00
10464;BME280;5279;42.048;24.638;2022-08-21T01:33:46;96806.00;;;20.83;100.00
10464;BME280;5279;42.048;24.638;2022-08-21T01:36:13;96816.34;;;20.86;100.00
10464;BME280;5279;42.048;24.638;2022-08-21T01:38:41;96815.63;;;20.79;100.00
10464;BME280;5279;42.048;24.638;2022-08-21T01:41:08;96822.88;;;20.79;100.00
10464;BME280;5279;42.048;24.638;2022-08-21T01:43:35;96832.06;;;20.71;100.00
10464;BME280;5279;42.048;24.638;2022-08-21T01:46:03;96825.22;;;20.57;100.00
10464;BME280;5279;42.048;24.638;2022-08-21T01:48:30;96832.06;;;20.71;100.00
10464;BME280;5279;42.048;24.638;2022-08-21T01:50:57;96845.44;;;20.78;100.00
10464;BME280;5279;42.048;24.638;2022-08-21T01:53:24;96851.59;;;20.85;100.00
10464;BME280;5279;42.048;24.638;2022-08-21T01:55:52;96847.97;;;20.91;100.00
10464;BME280;5279;42.048;24.638;2022-08-21T01:58:19;96849.69;;;21.03;100.00
10464;BME280;5279;42.048;24.638;2022-08-21T02:00:46;96847.66;;;20.99;100.00
10464;BME280;5279;42.048;24.638;2022-08-21T02:03:12;96849.94;;;20.84;100.00
10464;BME280;5279;42.048;24.638;2022-08-21T02:05:39;96851.34;;;20.86;100.00
10464;BME280;5279;42.048;24.638;2022-08-21T02:08:07;96846.19;;;20.85;100.00
10464;BME280;5279;42.048;24.638;2022-08-21T02:10:34;96844.47;;;20.90;100.00
10464;BME280;5279;42.048;24.638;2022-08-21T02:13:02;96851.84;;;20.95;100.00
10464;BME280;5279;42.048;24.638;2022-08-21T02:15:30;96844.97;;;20.99;100.00
10464;BME280;5279;42.048;24.638;2022-08-21T02:17:59;96832.88;;;20.90;100.00
10464;BME280;5279;42.048;24.638;2022-08-21T02:20:29;96830.09;;;20.96;100.00
10464;BME280;5279;42.048;24.638;2022-08-21T02:22:56;96831.50;;;20.99;100.00
10464;BME280;5279;42.048;24.638;2022-08-21T02:25:24;96841.81;;;21.02;100.00
10464;BME280;5279;42.048;24.638;2022-08-21T02:27:52;96851.19;;;20.99;100.00
10464;BME280;5279;42.048;24.638;2022-08-21T02:30:24;96863.06;;;21.10;100.00
10464;BME280;5279;42.048;24.638;2022-08-21T02:32:51;96861.09;;;21.17;100.00
10464;BME280;5279;42.048;24.638;2022-08-21T02:35:18;96870.97;;;21.23;100.00
10464;BME280;5279;42.048;24.638;2022-08-21T02:37:48;96870.41;;;21.33;100.00
10464;BME280;5279;42.048;24.638;2022-08-21T02:40:18;96865.84;;;21.33;100.00
10464;BME280;5279;42.048;24.638;2022-08-21T02:42:45;96863.75;;;21.35;100.00
10464;BME280;5279;42.048;24.638;2022-08-21T02:45:13;96863.75;;;21.35;100.00
10464;BME280;5279;42.048;24.638;2022-08-21T02:47:48;96865.13;;;21.26;100.00
10464;BME280;5279;42.048;24.638;2022-08-21T02:50:18;96868.06;;;21.24;100.00
10464;BME280;5279;42.048;24.638;2022-08-21T02:52:47;96861.09;;;21.17;100.00
10464;BME280;5279;42.048;24.638;2022-08-21T02:55:14;96861.34;;;21.15;100.00
10464;BME280;5279;42.048;24.638;2022-08-21T02:57:41;96862.38;;;21.14;100.00
10464;BME280;5279;42.048;24.638;2022-08-21T03:00:09;96864.38;;;21.19;100.00
10464;BME280;5279;42.048;24.638;2022-08-21T03:02:37;96870.84;;;21.18;100.00
10464;BME280;5279;42.048;24.638;2022-08-21T03:05:07;96876.44;;;21.16;100.00
10464;BME280;5279;42.048;24.638;2022-08-21T03:07:35;96894.34;;;21.11;100.00
10464;BME280;5279;42.048;24.638;2022-08-21T03:10:02;96898.84;;;20.99;100.00
10464;BME280;5279;42.048;24.638;2022-08-21T03:12:29;96894.66;;;20.85;100.00
10464;BME280;5279;42.048;24.638;2022-08-21T03:14:56;96893.91;;;20.78;100.00
10464;BME280;5279;42.048;24.638;2022-08-21T03:17:23;96888.00;;;20.87;100.00
10464;BME280;5279;42.048;24.638;2022-08-21T03:19:50;96878.97;;;20.82;100.00
10464;BME280;5279;42.048;24.638;2022-08-21T03:22:19;96876.94;;;20.77;100.00
10464;BME280;5279;42.048;24.638;2022-08-21T03:24:45;96878.50;;;20.85;100.00
10464;BME280;5279;42.048;24.638;2022-08-21T03:27:12;96886.59;;;20.85;100.00
10464;BME280;5279;42.048;24.638;2022-08-21T03:29:39;96895.84;;;20.89;100.00
10464;BME280;5279;42.048;24.638;2022-08-21T03:32:06;96889.88;;;20.87;100.00
10464;BME280;5279;42.048;24.638;2022-08-21T03:34:34;96895.94;;;20.82;100.00
10464;BME280;5279;42.048;24.638;2022-08-21T03:37:01;96896.19;;;20.62;100.00
10464;BME280;5279;42.048;24.638;2022-08-21T03:39:30;96875.69;;;20.43;100.00
10464;BME280;5279;42.048;24.638;2022-08-21T03:41:57;96885.28;;;20.57;100.00
10464;BME280;5279;42.048;24.638;2022-08-21T03:44:25;96884.00;;;20.60;100.00
10464;BME280;5279;42.048;24.638;2022-08-21T03:46:54;96881.81;;;20.68;100.00
10464;BME280;5279;42.048;24.638;2022-08-21T03:49:20;96876.22;;;20.70;100.00
10464;BME280;5279;42.048;24.638;2022-08-21T03:51:47;96881.59;;;20.70;100.00
10464;BME280;5279;42.048;24.638;2022-08-21T03:54:14;96875.53;;;20.75;100.00
10464;BME280;5279;42.048;24.638;2022-08-21T03:56:43;96878.97;;;20.82;100.00
10464;BME280;5279;42.048;24.638;2022-08-21T03:59:10;96885.97;;;20.83;100.00
10464;BME280;5279;42.048;24.638;2022-08-21T04:01:37;96894.22;;;20.88;100.00
10464;BME280;5279;42.048;24.638;2022-08-21T04:04:04;96897.03;;;20.93;100.00
10464;BME280;5279;42.048;24.638;2022-08-21T04:06:32;96895.25;;;20.87;100.00
10464;BME280;5279;42.048;24.638;2022-08-21T04:08:59;96891.34;;;20.83;100.00
10464;BME280;5279;42.048;24.638;2022-08-21T04:11:25;96903.03;;;20.77;100.00
10464;BME280;5279;42.048;24.638;2022-08-21T04:13:54;96901.50;;;20.69;100.00
10464;BME280;5279;42.048;24.638;2022-08-21T04:16:20;96904.13;;;20.57;100.00
10464;BME280;5279;42.048;24.638;2022-08-21T04:18:47;96911.13;;;20.58;100.00
10464;BME280;5279;42.048;24.638;2022-08-21T04:21:14;96906.88;;;20.51;100.00
10464;BME280;5279;42.048;24.638;2022-08-21T04:23:41;96902.38;;;20.45;100.00
10464;BME280;5279;42.048;24.638;2022-08-21T04:26:08;96896.56;;;20.48;100.00
10464;BME280;5279;42.048;24.638;2022-08-21T04:28:35;96894.38;;;20.56;100.00
10464;BME280;5279;42.048;24.638;2022-08-21T04:31:03;96892.44;;;20.63;100.00
10464;BME280;5279;42.048;24.638;2022-08-21T04:33:30;96885.09;;;20.70;100.00
10464;BME280;5279;42.048;24.638;2022-08-21T04:35:57;96887.94;;;20.76;100.00
10464;BME280;5279;42.048;24.638;2022-08-21T04:38:24;96893.47;;;20.81;100.00
10464;BME280;5279;42.048;24.638;2022-08-21T04:40:51;96890.31;;;20.84;100.00
10464;BME280;5279;42.048;24.638;2022-08-21T04:43:19;96886.81;;;20.83;100.00
10464;BME280;5279;42.048;24.638;2022-08-21T04:45:48;96877.31;;;20.81;100.00
10464;BME280;5279;42.048;24.638;2022-08-21T04:48:21;96880.59;;;20.83;100.00
10464;BME280;5279;42.048;24.638;2022-08-21T04:50:51;96878.22;;;20.75;100.00
10464;BME280;5279;42.048;24.638;2022-08-21T04:53:22;96877.47;;;20.67;100.00
10464;BME280;5279;42.048;24.638;2022-08-21T04:55:51;96870.72;;;20.77;100.00
10464;BME280;5279;42.048;24.638;2022-08-21T04:58:20;96863.25;;;20.79;100.00
10464;BME280;5279;42.048;24.638;2022-08-21T05:00:48;96861.94;;;20.69;100.00
10464;BME280;5279;42.048;24.638;2022-08-21T05:03:17;96857.00;;;20.66;100.00
10464;BME280;5279;42.048;24.638;2022-08-21T05:05:44;96859.53;;;20.61;100.00
10464;BME280;5279;42.048;24.638;2022-08-21T05:08:12;96862.66;;;20.58;100.00
10464;BME280;5279;42.048;24.638;2022-08-21T05:10:41;96854.00;;;20.56;100.00
10464;BME280;5279;42.048;24.638;2022-08-21T05:13:09;96852.97;;;20.57;100.00
10464;BME280;5279;42.048;24.638;2022-08-21T05:15:38;96861.94;;;20.51;100.00
10464;BME280;5279;42.048;24.638;2022-08-21T05:18:05;96865.53;;;20.63;100.00
10464;BME280;5279;42.048;24.638;2022-08-21T05:20:33;96865.97;;;20.60;100.00
10464;BME280;5279;42.048;24.638;2022-08-21T05:23:01;96869.38;;;20.67;100.00
10464;BME280;5279;42.048;24.638;2022-08-21T05:25:32;96858.63;;;20.67;100.00
10464;BME280;5279;42.048;24.638;2022-08-21T05:27:59;96859.69;;;20.66;100.00
10464;BME280;5279;42.048;24.638;2022-08-21T05:30:26;96859.50;;;20.80;100.00
10464;BME280;5279;42.048;24.638;2022-08-21T05:32:56;96867.66;;;20.91;100.00
10464;BME280;5279;42.048;24.638;2022-08-21T05:35:23;96862.50;;;20.90;100.00
10464;BME280;5279;42.048;24.638;2022-08-21T05:37:52;96870.94;;;20.93;100.00
10464;BME280;5279;42.048;24.638;2022-08-21T05:40:18;96877.59;;;21.09;100.00
10464;BME280;5279;42.048;24.638;2022-08-21T05:42:45;96878.94;;;21.18;100.00
10464;BME280;5279;42.048;24.638;2022-08-21T05:45:12;96881.28;;;21.26;100.00
10464;BME280;5279;42.048;24.638;2022-08-21T05:47:39;96877.41;;;21.22;100.00
10464;BME280;5279;42.048;24.638;2022-08-21T05:50:07;96879.16;;;21.28;100.00
10464;BME280;5279;42.048;24.638;2022-08-21T05:52:34;96893.50;;;21.40;100.00
10464;BME280;5279;42.048;24.638;2022-08-21T05:55:02;96886.75;;;21.49;100.00
10464;BME280;5279;42.048;24.638;2022-08-21T05:57:30;96867.16;;;21.42;100.00
10464;BME280;5279;42.048;24.638;2022-08-21T05:59:56;96875.38;;;21.59;100.00
10464;BME280;5279;42.048;24.638;2022-08-21T06:02:23;96890.53;;;21.71;100.00
10464;BME280;5279;42.048;24.638;2022-08-21T06:04:50;96891.28;;;21.78;100.00
10464;BME280;5279;42.048;24.638;2022-08-21T06:07:17;96897.34;;;21.86;100.00
10464;BME280;5279;42.048;24.638;2022-08-21T06:09:44;96900.22;;;21.91;100.00
10464;BME280;5279;42.048;24.638;2022-08-21T06:12:12;96908.44;;;21.96;100.00
10464;BME280;5279;42.048;24.638;2022-08-21T06:14:40;96897.75;;;21.89;100.00
10464;BME280;5279;42.048;24.638;2022-08-21T06:17:09;96898.34;;;21.91;100.00
10464;BME280;5279;42.048;24.638;2022-08-21T06:19:37;96892.72;;;21.93;100.00
10464;BME280;5279;42.048;24.638;2022-08-21T06:22:04;96891.56;;;22.00;100.00
10464;BME280;5279;42.048;24.638;2022-08-21T06:24:31;96904.47;;;22.10;100.00
10464;BME280;5279;42.048;24.638;2022-08-21T06:27:04;96882.91;;;22.10;100.00
10464;BME280;5279;42.048;24.638;2022-08-21T06:29:33;96888.97;;;22.17;100.00
10464;BME280;5279;42.048;24.638;2022-08-21T06:32:00;96894.84;;;22.14;100.00
10464;BME280;5279;42.048;24.638;2022-08-21T06:34:28;96884.28;;;22.24;100.00
10464;BME280;5279;42.048;24.638;2022-08-21T06:36:55;96885.19;;;22.41;100.00
10464;BME280;5279;42.048;24.638;2022-08-21T06:39:21;96883.34;;;22.30;100.00
10464;BME280;5279;42.048;24.638;2022-08-21T06:41:48;96884.00;;;22.60;100.00
10464;BME280;5279;42.048;24.638;2022-08-21T06:44:16;96884.50;;;22.57;100.00
10464;BME280;5279;42.048;24.638;2022-08-21T06:46:45;96880.13;;;22.68;100.00
10464;BME280;5279;42.048;24.638;2022-08-21T06:49:12;96874.13;;;22.77;100.00
10464;BME280;5279;42.048;24.638;2022-08-21T06:51:38;96878.69;;;22.89;100.00
10464;BME280;5279;42.048;24.638;2022-08-21T06:54:05;96878.22;;;22.92;100.00
10464;BME280;5279;42.048;24.638;2022-08-21T06:56:32;96879.84;;;22.93;100.00
10464;BME280;5279;42.048;24.638;2022-08-21T06:59:00;96885.16;;;22.88;100.00
10464;BME280;5279;42.048;24.638;2022-08-21T07:01:27;96882.84;;;22.79;100.00
10464;BME280;5279;42.048;24.638;2022-08-21T07:03:55;96889.41;;;22.60;100.00
10464;BME280;5279;42.048;24.638;2022-08-21T07:06:22;96892.09;;;22.60;100.00
10464;BME280;5279;42.048;24.638;2022-08-21T07:08:50;96880.97;;;22.45;100.00
10464;BME280;5279;42.048;24.638;2022-08-21T07:11:19;96883.78;;;22.50;100.00
10464;BME280;5279;42.048;24.638;2022-08-21T07:13:46;96881.06;;;22.62;100.00
10464;BME280;5279;42.048;24.638;2022-08-21T07:16:14;96871.09;;;22.62;100.00
10464;BME280;5279;42.048;24.638;2022-08-21T07:18:40;96884.09;;;22.77;100.00
10464;BME280;5279;42.048;24.638;2022-08-21T07:21:09;96867.91;;;22.77;100.00
10464;BME280;5279;42.048;24.638;2022-08-21T07:23:39;96869.81;;;22.76;100.00
10464;BME280;5279;42.048;24.638;2022-08-21T07:26:07;96875.78;;;22.78;100.00
10464;BME280;5279;42.048;24.638;2022-08-21T07:28:35;96857.31;;;22.87;100.00
10464;BME280;5279;42.048;24.638;2022-08-21T07:31:03;96858.50;;;23.08;100.00
10464;BME280;5279;42.048;24.638;2022-08-21T07:33:32;96867.50;;;23.25;100.00
10464;BME280;5279;42.048;24.638;2022-08-21T07:35:59;96863.97;;;23.24;100.00
10464;BME280;5279;42.048;24.638;2022-08-21T07:38:27;96870.22;;;23.25;100.00
10464;BME280;5279;42.048;24.638;2022-08-21T07:40:56;96867.44;;;23.36;100.00
10464;BME280;5279;42.048;24.638;2022-08-21T07:43:25;96875.53;;;23.48;100.00
10464;BME280;5279;42.048;24.638;2022-08-21T07:45:52;96872.75;;;23.43;100.00
10464;BME280;5279;42.048;24.638;2022-08-21T07:48:20;96876.50;;;23.42;100.00
10464;BME280;5279;42.048;24.638;2022-08-21T07:50:48;96873.22;;;23.40;100.00
10464;BME280;5279;42.048;24.638;2022-08-21T07:53:15;96879.31;;;23.35;100.00
10464;BME280;5279;42.048;24.638;2022-08-21T07:55:44;96879.03;;;23.20;100.00
10464;BME280;5279;42.048;24.638;2022-08-21T07:58:11;96877.06;;;23.16;100.00
10464;BME280;5279;42.048;24.638;2022-08-21T08:00:39;96862.47;;;23.17;100.00
10464;BME280;5279;42.048;24.638;2022-08-21T08:03:06;96872.84;;;23.36;100.00
10464;BME280;5279;42.048;24.638;2022-08-21T08:05:33;96880.03;;;23.59;100.00
10464;BME280;5279;42.048;24.638;2022-08-21T08:08:02;96887.03;;;23.88;100.00
10464;BME280;5279;42.048;24.638;2022-08-21T08:10:29;96883.91;;;23.97;100.00
10464;BME280;5279;42.048;24.638;2022-08-21T08:12:57;96880.47;;;23.84;100.00
10464;BME280;5279;42.048;24.638;2022-08-21T08:15:26;96876.31;;;23.77;100.00
10464;BME280;5279;42.048;24.638;2022-08-21T08:17:53;96871.63;;;23.72;100.00
10464;BME280;5279;42.048;24.638;2022-08-21T08:20:21;96871.63;;;23.72;100.00
10464;BME280;5279;42.048;24.638;2022-08-21T08:22:49;96866.03;;;23.79;100.00
10464;BME280;5279;42.048;24.638;2022-08-21T08:25:17;96845.69;;;24.10;100.00
10464;BME280;5279;42.048;24.638;2022-08-21T08:27:44;96850.75;;;24.39;100.00
10464;BME280;5279;42.048;24.638;2022-08-21T08:30:15;96847.59;;;24.47;100.00
10464;BME280;5279;42.048;24.638;2022-08-21T08:32:42;96855.13;;;24.62;100.00
10464;BME280;5279;42.048;24.638;2022-08-21T08:35:12;96847.97;;;24.78;100.00
10464;BME280;5279;42.048;24.638;2022-08-21T08:37:40;96840.19;;;25.03;100.00
10464;BME280;5279;42.048;24.638;2022-08-21T08:40:10;96842.97;;;25.35;100.00
10464;BME280;5279;42.048;24.638;2022-08-21T08:42:38;96829.59;;;25.50;100.00
10464;BME280;5279;42.048;24.638;2022-08-21T08:45:07;96835.03;;;25.55;100.00
10464;BME280;5279;42.048;24.638;2022-08-21T08:47:39;96828.06;;;25.64;100.00
10464;BME280;5279;42.048;24.638;2022-08-21T08:50:10;96831.97;;;25.78;100.00
10464;BME280;5279;42.048;24.638;2022-08-21T08:52:42;96826.75;;;25.72;100.00
10464;BME280;5279;42.048;24.638;2022-08-21T08:55:13;96823.91;;;25.83;100.00
10464;BME280;5279;42.048;24.638;2022-08-21T08:57:44;96820.91;;;25.85;100.00
10464;BME280;5279;42.048;24.638;2022-08-21T09:00:14;96822.75;;;25.74;100.00
10464;BME280;5279;42.048;24.638;2022-08-21T09:02:44;96822.16;;;25.72;100.00
10464;BME280;5279;42.048;24.638;2022-08-21T09:05:20;96822.16;;;25.72;100.00
10464;BME280;5279;42.048;24.638;2022-08-21T09:07:58;96816.69;;;25.67;100.00
10464;BME280;5279;42.048;24.638;2022-08-21T09:10:32;96818.91;;;25.70;100.00
10464;BME280;5279;42.048;24.638;2022-08-21T09:13:16;96811.00;;;25.69;100.00
10464;BME280;5279;42.048;24.638;2022-08-21T09:15:51;96807.22;;;25.70;100.00
10464;BME280;5279;42.048;24.638;2022-08-21T09:18:31;96803.34;;;25.61;100.00
10464;BME280;5279;42.048;24.638;2022-08-21T09:21:07;96797.53;;;25.47;100.00
10464;BME280;5279;42.048;24.638;2022-08-21T09:23:43;96806.72;;;25.46;100.00
10464;BME280;5279;42.048;24.638;2022-08-21T09:26:13;96796.75;;;25.25;100.00
10464;BME280;5279;42.048;24.638;2022-08-21T09:28:41;96796.31;;;25.06;100.00
10464;BME280;5279;42.048;24.638;2022-08-21T09:31:21;96794.56;;;24.95;100.00
10464;BME280;5279;42.048;24.638;2022-08-21T09:33:49;96788.53;;;24.88;100.00
10464;BME280;5279;42.048;24.638;2022-08-21T09:36:24;96784.59;;;24.79;100.00
10464;BME280;5279;42.048;24.638;2022-08-21T09:38:53;96785.09;;;24.76;100.00
10464;BME280;5279;42.048;24.638;2022-08-21T09:41:29;96785.47;;;24.63;100.00
10464;BME280;5279;42.048;24.638;2022-08-21T09:43:57;96791.22;;;24.66;100.00
10464;BME280;5279;42.048;24.638;2022-08-21T09:46:25;96796.41;;;24.46;100.00
10464;BME280;5279;42.048;24.638;2022-08-21T09:48:56;96802.13;;;24.50;100.00
10464;BME280;5279;42.048;24.638;2022-08-21T09:51:26;96777.81;;;24.33;100.00
10464;BME280;5279;42.048;24.638;2022-08-21T09:53:58;96794.31;;;24.31;100.00
10464;BME280;5279;42.048;24.638;2022-08-21T09:56:30;96789.81;;;24.20;100.00
10464;BME280;5279;42.048;24.638;2022-08-21T09:59:20;96799.31;;;24.23;100.00
10464;BME280;5279;42.048;24.638;2022-08-21T10:01:52;96795.63;;;24.29;100.00
10464;BME280;5279;42.048;24.638;2022-08-21T10:04:26;96797.28;;;24.30;100.00
10464;BME280;5279;42.048;24.638;2022-08-21T10:06:54;96789.47;;;24.33;100.00
10464;BME280;5279;42.048;24.638;2022-08-21T10:09:31;96798.41;;;24.34;100.00
10464;BME280;5279;42.048;24.638;2022-08-21T10:12:09;96807.16;;;24.19;100.00
10464;BME280;5279;42.048;24.638;2022-08-21T10:14:47;96800.81;;;24.14;100.00
10464;BME280;5279;42.048;24.638;2022-08-21T10:17:27;96796.66;;;24.06;100.00
10464;BME280;5279;42.048;24.638;2022-08-21T10:20:03;96791.66;;;24.15;100.00
10464;BME280;5279;42.048;24.638;2022-08-21T10:22:38;96796.13;;;24.26;100.00
10464;BME280;5279;42.048;24.638;2022-08-21T10:25:24;96798.97;;;24.36;100.00
10464;BME280;5279;42.048;24.638;2022-08-21T10:28:00;96794.75;;;24.45;100.00
10464;BME280;5279;42.048;24.638;2022-08-21T10:30:37;96797.53;;;24.50;100.00
10464;BME280;5279;42.048;24.638;2022-08-21T10:33:24;96791.22;;;24.44;100.00
10464;BME280;5279;42.048;24.638;2022-08-21T10:36:04;96792.75;;;24.57;100.00
10464;BME280;5279;42.048;24.638;2022-08-21T10:38:49;96796.59;;;24.61;100.00
10464;BME280;5279;42.048;24.638;2022-08-21T10:41:30;96792.38;;;24.70;100.00
10464;BME280;5279;42.048;24.638;2022-08-21T10:44:04;96791.00;;;24.46;100.00
10464;BME280;5279;42.048;24.638;2022-08-21T10:46:47;96797.31;;;24.35;100.00
10464;BME280;5279;42.048;24.638;2022-08-21T10:49:25;96798.94;;;24.53;100.00
10464;BME280;5279;42.048;24.638;2022-08-21T10:52:07;96800.00;;;24.52;100.00
10464;BME280;5279;42.048;24.638;2022-08-21T10:54:42;96792.91;;;24.51;100.00
10464;BME280;5279;42.048;24.638;2022-08-21T10:57:29;96799.91;;;24.25;100.00
10464;BME280;5279;42.048;24.638;2022-08-21T11:00:00;96808.09;;;24.30;100.00
10464;BME280;5279;42.048;24.638;2022-08-21T11:02:33;96803.31;;;24.37;100.00
10464;BME280;5279;42.048;24.638;2022-08-21T11:05:05;96802.31;;;24.43;100.00
10464;BME280;5279;42.048;24.638;2022-08-21T11:07:38;96798.47;;;24.39;100.00
10464;BME280;5279;42.048;24.638;2022-08-21T11:10:12;96807.59;;;24.33;100.00
10464;BME280;5279;42.048;24.638;2022-08-21T11:12:44;96800.03;;;24.35;100.00
10464;BME280;5279;42.048;24.638;2022-08-21T11:15:26;96801.19;;;24.39;100.00
10464;BME280;5279;42.048;24.638;2022-08-21T11:18:04;96794.75;;;24.45;100.00
10464;BME280;5279;42.048;24.638;2022-08-21T11:20:40;96790.34;;;24.39;100.00
10464;BME280;5279;42.048;24.638;2022-08-21T11:23:17;96794.56;;;24.52;100.00
10464;BME280;5279;42.048;24.638;2022-08-21T11:25:48;96794.94;;;24.60;100.00
10464;BME280;5279;42.048;24.638;2022-08-21T11:28:21;96796.81;;;24.60;100.00
10464;BME280;5279;42.048;24.638;2022-08-21T11:30:58;96796.03;;;24.59;100.00
10464;BME280;5279;42.048;24.638;2022-08-21T11:33:42;96804.03;;;24.71;100.00
10464;BME280;5279;42.048;24.638;2022-08-21T11:36:17;96803.19;;;24.70;100.00
10464;BME280;5279;42.048;24.638;2022-08-21T11:38:53;96800.72;;;24.69;100.00
10464;BME280;5279;42.048;24.638;2022-08-21T11:41:28;96795.44;;;24.57;100.00
10464;BME280;5279;42.048;24.638;2022-08-21T11:44:04;96801.22;;;24.66;100.00
10464;BME280;5279;42.048;24.638;2022-08-21T11:46:42;96795.63;;;24.72;100.00
10464;BME280;5279;42.048;24.638;2022-08-21T11:49:40;96790.84;;;24.79;100.00
10464;BME280;5279;42.048;24.638;2022-08-21T11:52:15;96782.78;;;24.84;100.00
10464;BME280;5279;42.048;24.638;2022-08-21T11:54:49;96775.84;;;24.93;100.00
10464;BME280;5279;42.048;24.638;2022-08-21T11:57:24;96787.31;;;25.00;100.00
10464;BME280;5279;42.048;24.638;2022-08-21T11:59:56;96774.94;;;25.10;100.00
10464;BME280;5279;42.048;24.638;2022-08-21T12:02:28;96776.56;;;25.11;100.00
10464;BME280;5279;42.048;24.638;2022-08-21T12:05:00;96772.66;;;25.28;100.00
10464;BME280;5279;42.048;24.638;2022-08-21T12:07:34;96780.81;;;25.60;100.00
10464;BME280;5279;42.048;24.638;2022-08-21T12:10:07;96774.19;;;26.20;100.00
10464;BME280;5279;42.048;24.638;2022-08-21T12:12:37;96785.34;;;26.80;100.00
10464;BME280;5279;42.048;24.638;2022-08-21T12:15:17;96774.84;;;27.24;100.00
10464;BME280;5279;42.048;24.638;2022-08-21T12:17:58;96777.88;;;27.73;100.00
10464;BME280;5279;42.048;24.638;2022-08-21T12:20:39;96778.63;;;28.29;100.00
10464;BME280;5279;42.048;24.638;2022-08-21T12:23:25;96762.44;;;28.63;100.00
10464;BME280;5279;42.048;24.638;2022-08-21T12:29:15;96754.44;;;29.98;100.00
10464;BME280;5279;42.048;24.638;2022-08-21T12:31:53;96762.59;;;30.27;94.30
10464;BME280;5279;42.048;24.638;2022-08-21T12:34:24;96757.91;;;30.99;86.79
10464;BME280;5279;42.048;24.638;2022-08-21T12:36:57;96748.78;;;31.40;81.06
10464;BME280;5279;42.048;24.638;2022-08-21T12:39:27;96758.44;;;31.57;79.95
10464;BME280;5279;42.048;24.638;2022-08-21T12:42:00;96742.69;;;31.49;72.08
10464;BME280;5279;42.048;24.638;2022-08-21T12:44:38;96743.06;;;31.23;73.06
10464;BME280;5279;42.048;24.638;2022-08-21T12:47:15;96733.84;;;30.77;80.77
10464;BME280;5279;42.048;24.638;2022-08-21T12:49:52;96734.19;;;30.52;81.20
10464;BME280;5279;42.048;24.638;2022-08-21T12:52:22;96726.84;;;30.23;87.02
10464;BME280;5279;42.048;24.638;2022-08-21T12:54:49;96727.94;;;29.65;95.75
10464;BME280;5279;42.048;24.638;2022-08-21T12:57:22;96722.22;;;29.33;93.47
10464;BME280;5279;42.048;24.638;2022-08-21T12:59:55;96721.00;;;29.10;100.00
10464;BME280;5279;42.048;24.638;2022-08-21T13:02:24;96724.22;;;28.78;99.86
10464;BME280;5279;42.048;24.638;2022-08-21T13:04:53;96722.16;;;28.40;100.00
10464;BME280;5279;42.048;24.638;2022-08-21T13:07:26;96725.44;;;28.37;100.00